createdAt,value
2023-01-04T00:02:02.974Z,82.75
2023-01-04T00:04:31.429Z,83.13
2023-01-04T00:06:59.751Z,82.65
2023-01-04T00:09:28.052Z,82.62
2023-01-04T00:11:56.362Z,80.19
2023-01-04T00:14:24.645Z,81.43
2023-01-04T00:16:52.939Z,81.86
2023-01-04T00:19:21.238Z,80.54
2023-01-04T00:21:49.558Z,81.33
2023-01-04T00:24:17.862Z,81.13
2023-01-04T00:26:46.161Z,81.04
2023-01-04T00:29:15.431Z,81.68
2023-01-04T00:31:45.612Z,79.05
2023-01-04T00:34:16.321Z,80.28
2023-01-04T00:36:45.539Z,79.52
2023-01-04T00:39:18.216Z,80.36
2023-01-04T00:41:58.694Z,77.85
2023-01-04T00:44:29.059Z,76.42
2023-01-04T00:46:58.581Z,76.29
2023-01-04T00:49:28.722Z,76.55
2023-01-04T00:51:58.644Z,74.83
2023-01-04T00:54:27.723Z,74.47
2023-01-04T00:56:56.676Z,75.18
2023-01-04T00:59:25.544Z,73.89
2023-01-04T01:01:55.121Z,74.08
2023-01-04T01:04:25.599Z,73.95
2023-01-04T01:06:54.684Z,74.40
2023-01-04T01:09:24.316Z,75.08
2023-01-04T01:11:54.895Z,74.70
2023-01-04T01:14:27.628Z,73.21
2023-01-04T01:16:58.229Z,72.60
2023-01-04T01:19:30.791Z,72.72
2023-01-04T01:21:59.870Z,72.39
2023-01-04T01:24:29.015Z,72.27
2023-01-04T01:26:58.079Z,72.20
2023-01-04T01:29:26.769Z,72.06
2023-01-04T01:31:55.453Z,71.79
2023-01-04T01:34:24.035Z,70.99
2023-01-04T01:36:52.342Z,70.10
2023-01-04T01:39:21.307Z,70.01
2023-01-04T01:41:49.823Z,69.65
2023-01-04T01:44:46.097Z,69.06
2023-01-04T01:47:51.645Z,68.59
2023-01-04T01:50:28.982Z,68.13
2023-01-04T01:53:00.632Z,68.63
2023-01-04T01:55:32.016Z,68.09
2023-01-04T01:58:02.149Z,67.47
2023-01-04T02:00:31.648Z,67.90
2023-01-04T02:03:02.782Z,68.07
2023-01-04T02:05:32.852Z,68.11
2023-01-04T02:08:02.261Z,67.75
2023-01-04T02:10:30.937Z,67.71
2023-01-04T02:13:01.243Z,67.60
2023-01-04T02:15:37.003Z,67.51
2023-01-04T02:18:16.358Z,67.78
2023-01-04T02:21:03.102Z,67.23
2023-01-04T02:23:52.509Z,67.22
2023-01-04T02:26:59.336Z,67.23
2023-01-04T02:29:54.750Z,66.53
2023-01-04T02:33:06.083Z,66.03
2023-01-04T02:35:59.604Z,66.09
2023-01-04T02:39:01.020Z,65.51
2023-01-04T02:41:48.607Z,66.03
2023-01-04T02:44:58.437Z,65.70
2023-01-04T02:47:49.253Z,65.12
2023-01-04T02:50:34.437Z,65.00
2023-01-04T02:53:03.123Z,63.43
2023-01-04T02:55:57.799Z,64.24
2023-01-04T02:58:33.797Z,64.70
2023-01-04T03:01:43.772Z,63.69
2023-01-04T03:04:55.507Z,62.66
2023-01-04T03:07:36.416Z,62.15
2023-01-04T03:10:20.166Z,62.59
2023-01-04T03:12:56.168Z,62.15
2023-01-04T03:15:32.187Z,61.96
2023-01-04T03:18:24.072Z,61.73
2023-01-04T03:20:55.470Z,61.11
2023-01-04T03:23:47.309Z,60.85
2023-01-04T03:26:41.196Z,61.85
2023-01-04T03:29:47.552Z,60.52
2023-01-04T03:32:42.521Z,59.62
2023-01-04T03:35:28.996Z,59.47
2023-01-04T03:38:35.942Z,60.15
2023-01-04T03:41:51.570Z,58.29
2023-01-04T03:44:49.299Z,58.26
2023-01-04T03:47:54.125Z,59.39
2023-01-04T03:50:34.715Z,59.30
2023-01-04T03:53:04.661Z,58.85
2023-01-04T03:55:34.586Z,58.24
2023-01-04T03:58:03.157Z,57.89
2023-01-04T04:00:32.019Z,58.29
2023-01-04T04:03:08.296Z,57.46
2023-01-04T04:06:01.115Z,56.58
2023-01-04T04:08:29.991Z,56.05
2023-01-04T04:11:21.473Z,56.88
2023-01-04T04:13:51.495Z,55.38
2023-01-04T04:16:19.893Z,56.25
2023-01-04T04:18:49.115Z,55.37
2023-01-04T04:21:17.506Z,54.67
2023-01-04T04:23:45.953Z,55.24
2023-01-04T04:26:14.299Z,55.72
2023-01-04T04:28:43.199Z,53.60
2023-01-04T04:31:11.599Z,55.49
2023-01-04T04:33:40.902Z,54.23
2023-01-04T04:36:10.033Z,55.12
2023-01-04T04:38:38.399Z,53.09
2023-01-04T04:41:30.155Z,52.88
2023-01-04T04:43:59.790Z,53.18
2023-01-04T04:46:28.305Z,52.97
2023-01-04T04:48:56.812Z,55.06
2023-01-04T04:51:25.222Z,52.05
2023-01-04T04:53:54.017Z,52.20
2023-01-04T04:56:22.390Z,52.33
2023-01-04T04:58:51.546Z,51.20
2023-01-04T05:01:20.679Z,52.98
2023-01-04T05:03:49.352Z,52.69
2023-01-04T05:06:17.713Z,52.87
2023-01-04T05:08:46.017Z,51.07
2023-01-04T05:11:15.540Z,51.75
2023-01-04T05:13:43.890Z,51.54
2023-01-04T05:16:12.246Z,50.15
2023-01-04T05:18:40.637Z,51.31
2023-01-04T05:21:09.007Z,50.70
2023-01-04T05:23:37.305Z,51.53
2023-01-04T05:26:06.121Z,47.99
2023-01-04T05:28:34.444Z,48.64
2023-01-04T05:31:02.763Z,49.14
2023-01-04T05:33:33.656Z,50.11
2023-01-04T05:36:04.781Z,47.73
2023-01-04T05:38:34.463Z,49.78
2023-01-04T05:41:02.847Z,49.24
2023-01-04T05:43:31.211Z,51.15
2023-01-04T05:45:59.572Z,50.44
2023-01-04T05:48:27.905Z,49.68
2023-01-04T05:50:56.252Z,49.13
2023-01-04T05:53:24.558Z,49.59
2023-01-04T05:55:52.991Z,48.19
2023-01-04T05:58:21.274Z,47.77
2023-01-04T06:00:49.619Z,49.26
2023-01-04T06:03:18.134Z,49.07
2023-01-04T06:05:51.307Z,49.50
2023-01-04T06:08:19.860Z,48.61
2023-01-04T06:10:55.291Z,49.22
2023-01-04T06:13:23.717Z,48.77
2023-01-04T06:15:52.199Z,48.21
2023-01-04T06:18:20.511Z,49.25
2023-01-04T06:20:51.921Z,48.67
2023-01-04T06:23:20.233Z,47.82
2023-01-04T06:25:48.533Z,46.43
2023-01-04T06:28:16.986Z,46.70
2023-01-04T06:30:45.262Z,46.48
2023-01-04T06:33:13.701Z,47.31
2023-01-04T06:35:41.975Z,46.34
2023-01-04T06:38:10.314Z,46.48
2023-01-04T06:40:38.607Z,46.92
2023-01-04T06:43:06.890Z,47.69
2023-01-04T06:45:35.172Z,46.09
2023-01-04T06:48:08.737Z,47.68
2023-01-04T06:50:38.140Z,47.69
2023-01-04T06:53:06.880Z,47.74
2023-01-04T06:55:35.198Z,47.69
2023-01-04T06:58:03.555Z,46.63
2023-01-04T07:00:31.920Z,47.32
2023-01-04T07:03:14.464Z,47.81
2023-01-04T07:05:44.944Z,46.69
2023-01-04T07:08:14.366Z,47.02
2023-01-04T07:10:43.770Z,47.41
2023-01-04T07:13:12.215Z,46.25
2023-01-04T07:15:41.123Z,47.06
2023-01-04T07:18:11.441Z,47.54
2023-01-04T07:20:40.202Z,47.38
2023-01-04T07:23:09.587Z,47.52
2023-01-04T07:25:38.052Z,46.93
2023-01-04T07:28:06.518Z,48.28
2023-01-04T07:30:35.001Z,47.03
2023-01-04T07:33:03.426Z,46.91
2023-01-04T07:35:31.832Z,48.50
2023-01-04T07:38:00.202Z,48.02
2023-01-04T07:40:28.966Z,48.23
2023-01-04T07:43:01.514Z,46.61
2023-01-04T07:45:29.898Z,47.95
2023-01-04T07:47:59.347Z,47.14
2023-01-04T07:50:27.819Z,46.93
2023-01-04T07:52:57.260Z,47.62
2023-01-04T07:55:25.631Z,47.35
2023-01-04T07:57:55.366Z,48.08
2023-01-04T08:00:23.762Z,47.33
2023-01-04T08:02:52.198Z,48.25
2023-01-04T08:05:20.768Z,47.76
2023-01-04T08:07:49.099Z,47.01
2023-01-04T08:10:17.400Z,48.14
2023-01-04T08:12:45.761Z,47.38
2023-01-04T08:15:15.807Z,47.26
2023-01-04T08:17:44.192Z,47.55
2023-01-04T08:20:13.009Z,48.99
2023-01-04T08:22:41.458Z,48.68
2023-01-04T08:25:10.225Z,46.12
2023-01-04T08:27:38.713Z,47.23
2023-01-04T08:30:07.591Z,48.15
2023-01-04T08:32:35.907Z,47.91
2023-01-04T08:35:04.380Z,47.07
2023-01-04T08:37:33.027Z,47.50
2023-01-04T08:40:01.371Z,47.68
2023-01-04T08:42:31.812Z,48.59
2023-01-04T08:45:02.262Z,48.36
2023-01-04T08:47:31.919Z,49.35
2023-01-04T08:50:06.630Z,49.75
2023-01-04T08:52:38.150Z,48.47
2023-01-04T08:55:12.288Z,48.28
2023-01-04T08:57:41.162Z,48.44
2023-01-04T09:00:10.679Z,48.00
2023-01-04T09:02:39.133Z,48.85
2023-01-04T09:05:08.275Z,48.34
2023-01-04T09:07:36.660Z,48.91
2023-01-04T09:10:05.044Z,48.90
2023-01-04T09:12:33.361Z,48.95
2023-01-04T09:15:01.701Z,49.09
2023-01-04T09:17:30.105Z,49.32
2023-01-04T09:19:58.699Z,49.97
2023-01-04T09:22:27.059Z,49.77
2023-01-04T09:24:56.164Z,50.11
2023-01-04T09:27:24.481Z,49.52
2023-01-04T09:29:52.805Z,49.97
2023-01-04T09:32:21.121Z,50.63
2023-01-04T09:34:49.802Z,49.71
2023-01-04T09:37:18.130Z,49.71
2023-01-04T09:39:48.190Z,49.79
2023-01-04T09:42:35.083Z,51.01
2023-01-04T09:45:25.097Z,51.23
2023-01-04T09:48:11.580Z,51.20
2023-01-04T09:51:03.095Z,51.53
2023-01-04T09:53:44.243Z,51.73
2023-01-04T09:56:29.587Z,51.44
2023-01-04T09:58:59.300Z,51.47
2023-01-04T10:01:34.602Z,51.84
2023-01-04T10:04:29.099Z,51.71
2023-01-04T10:07:04.700Z,51.85
2023-01-04T10:09:34.938Z,51.76
2023-01-04T10:12:10.519Z,52.19
2023-01-04T10:15:17.929Z,51.98
2023-01-04T10:19:16.979Z,52.09
2023-01-04T10:24:08.358Z,52.55
2023-01-04T10:26:47.806Z,52.77
2023-01-04T10:29:37.377Z,52.86
2023-01-04T10:32:31.695Z,53.15
2023-01-04T10:35:00.483Z,53.77
2023-01-04T10:37:37.207Z,53.82
2023-01-04T10:40:15.751Z,54.29
2023-01-04T10:43:06.156Z,55.20
2023-01-04T10:45:42.491Z,55.06
2023-01-04T10:48:17.472Z,55.43
2023-01-04T10:51:05.048Z,55.76
2023-01-04T10:53:45.579Z,56.84
2023-01-04T10:56:29.431Z,57.29
2023-01-04T10:59:06.921Z,58.49
2023-01-04T11:01:38.373Z,57.79
2023-01-04T11:04:17.113Z,57.75
2023-01-04T11:07:09.178Z,57.91
2023-01-04T11:09:54.965Z,58.12
2023-01-04T11:12:25.001Z,59.43
2023-01-04T11:14:54.191Z,60.04
2023-01-04T11:17:25.533Z,59.48
2023-01-04T11:19:55.743Z,59.46
2023-01-04T11:22:33.298Z,59.51
2023-01-04T11:25:36.458Z,59.93
2023-01-04T11:28:28.224Z,59.94
2023-01-04T11:31:34.006Z,59.65
2023-01-04T11:34:04.760Z,60.93
2023-01-04T11:36:33.033Z,60.35
2023-01-04T11:39:01.634Z,60.27
2023-01-04T11:41:30.194Z,60.56
2023-01-04T11:44:04.771Z,60.73
2023-01-04T11:46:35.167Z,62.39
2023-01-04T11:49:03.517Z,63.87
2023-01-04T11:51:32.353Z,65.78
2023-01-04T11:54:06.527Z,66.02
2023-01-04T11:56:37.362Z,65.71
2023-01-04T11:59:17.945Z,65.58
2023-01-04T12:01:52.659Z,66.08
2023-01-04T12:04:27.754Z,65.61
2023-01-04T12:07:02.821Z,66.13
2023-01-04T12:09:33.191Z,66.01
2023-01-04T12:12:02.599Z,65.12
2023-01-04T12:14:36.882Z,65.27
2023-01-04T12:17:43.095Z,65.04
2023-01-04T12:20:19.632Z,65.38
2023-01-04T12:22:48.569Z,65.49
2023-01-04T12:25:49.663Z,65.44
2023-01-04T12:28:32.976Z,65.97
2023-01-04T12:31:47.609Z,66.09
2023-01-04T12:34:26.873Z,66.19
2023-01-04T12:37:05.200Z,66.44
2023-01-04T12:40:00.633Z,67.08
2023-01-04T12:42:28.965Z,68.00
2023-01-04T12:44:59.677Z,68.36
2023-01-04T12:47:58.284Z,68.20
2023-01-04T12:50:30.272Z,69.09
2023-01-04T12:53:30.077Z,69.22
2023-01-04T12:55:56.737Z,68.83
2023-01-04T13:01:26.434Z,69.24
2023-01-04T13:04:05.602Z,69.30
2023-01-04T13:06:42.890Z,69.57
2023-01-04T13:09:24.631Z,69.90
2023-01-04T13:12:21.123Z,69.98
2023-01-04T13:14:53.909Z,69.81
2023-01-04T13:17:24.932Z,70.11
2023-01-04T13:19:53.355Z,70.68
2023-01-04T13:22:31.520Z,69.73
2023-01-04T13:25:02.676Z,70.47
2023-01-04T13:27:30.990Z,71.02
2023-01-04T13:29:59.314Z,70.60
2023-01-04T13:32:47.047Z,69.88
2023-01-04T13:35:23.437Z,69.17
2023-01-04T13:37:52.928Z,69.24
2023-01-04T13:40:29.870Z,68.98
2023-01-04T13:43:42.498Z,68.79
2023-01-04T13:46:36.577Z,66.45
2023-01-04T13:49:04.999Z,66.65
2023-01-04T13:51:38.553Z,67.32
2023-01-04T13:54:19.070Z,66.17
2023-01-04T13:56:53.476Z,65.45
2023-01-04T13:59:24.253Z,64.45
2023-01-04T14:01:54.090Z,64.95
2023-01-04T14:04:32.533Z,64.32
2023-01-04T14:07:02.734Z,64.69
2023-01-04T14:09:37.893Z,64.23
2023-01-04T14:12:18.903Z,64.52
2023-01-04T14:15:05.225Z,64.30
2023-01-04T14:17:44.512Z,64.14
2023-01-04T14:20:23.668Z,63.94
2023-01-04T14:22:59.399Z,63.90
2023-01-04T14:25:37.731Z,64.06
2023-01-04T14:28:25.499Z,64.99
2023-01-04T14:31:01.060Z,65.34
2023-01-04T14:33:46.185Z,65.34
2023-01-04T14:36:33.987Z,66.01
2023-01-04T14:39:08.240Z,66.30
2023-01-04T14:41:42.836Z,66.38
2023-01-04T14:44:14.495Z,66.63
2023-01-04T14:46:47.873Z,67.06
2023-01-04T14:49:17.307Z,67.25
2023-01-04T14:51:55.438Z,67.26
2023-01-04T14:54:25.795Z,67.55
2023-01-04T14:56:55.666Z,67.41
2023-01-04T14:59:24.958Z,67.59
2023-01-04T15:01:55.111Z,67.44
2023-01-04T15:04:24.096Z,67.71
2023-01-04T15:06:58.125Z,67.68
2023-01-04T15:09:27.289Z,67.69
2023-01-04T15:11:55.857Z,67.82
2023-01-04T15:14:24.498Z,67.65
2023-01-04T15:16:52.803Z,68.07
2023-01-04T15:19:21.157Z,67.76
2023-01-04T15:21:49.457Z,68.54
2023-01-04T15:24:18.300Z,68.72
2023-01-04T15:26:46.745Z,68.78
2023-01-04T15:29:15.230Z,68.89
2023-01-04T15:31:44.744Z,69.23
2023-01-04T15:34:15.939Z,68.55
2023-01-04T15:36:44.547Z,68.66
2023-01-04T15:39:15.972Z,69.17
2023-01-04T15:42:02.805Z,69.19
2023-01-04T15:44:31.076Z,69.52
2023-01-04T15:47:00.307Z,69.46
2023-01-04T15:49:31.945Z,69.20
2023-01-04T15:52:00.328Z,69.74
2023-01-04T15:54:29.605Z,69.97
2023-01-04T15:56:58.343Z,69.78
2023-01-04T15:59:27.069Z,70.08
2023-01-04T16:01:55.637Z,69.73
2023-01-04T16:04:24.119Z,70.00
2023-01-04T16:06:52.582Z,70.27
2023-01-04T16:09:20.968Z,69.98
2023-01-04T16:12:07.471Z,70.30
2023-01-04T16:14:35.825Z,70.13
2023-01-04T16:17:04.136Z,70.29
2023-01-04T16:19:35.228Z,70.25
2023-01-04T16:22:03.785Z,68.64
2023-01-04T16:27:20.915Z,67.99
2023-01-04T16:29:53.637Z,69.51
2023-01-04T16:32:22.047Z,69.77
2023-01-04T16:34:52.065Z,70.34
2023-01-04T16:37:20.561Z,70.81
2023-01-04T16:40:08.477Z,70.78
2023-01-04T16:42:38.471Z,70.99
2023-01-04T16:45:08.117Z,71.14
2023-01-04T16:47:42.109Z,71.32
2023-01-04T16:50:13.139Z,71.09
2023-01-04T16:52:41.520Z,71.92
2023-01-04T16:55:10.569Z,71.84
2023-01-04T16:57:38.890Z,72.12
2023-01-04T17:00:07.838Z,72.23
2023-01-04T17:02:36.178Z,72.27
2023-01-04T17:05:05.375Z,72.26
2023-01-04T17:07:33.773Z,72.25
2023-01-04T17:10:02.285Z,72.91
2023-01-04T17:12:48.108Z,72.98
2023-01-04T17:18:06.926Z,68.96
2023-01-04T17:20:35.310Z,70.50
2023-01-04T17:23:03.615Z,69.34
2023-01-04T17:25:32.401Z,70.87
2023-01-04T17:28:00.720Z,69.48
2023-01-04T17:30:29.009Z,70.12
2023-01-04T17:32:57.321Z,68.35
2023-01-04T17:35:25.630Z,68.69
2023-01-04T17:37:53.995Z,68.78
2023-01-04T17:40:23.512Z,68.47
2023-01-04T17:42:52.189Z,69.07
2023-01-04T17:45:20.560Z,68.63
2023-01-04T17:47:49.187Z,69.03
2023-01-04T17:50:18.352Z,68.67
2023-01-04T17:52:48.583Z,68.79
2023-01-04T17:55:16.981Z,69.05
2023-01-04T17:57:45.552Z,68.88
2023-01-04T18:00:15.779Z,69.58
2023-01-04T18:02:44.570Z,69.40
2023-01-04T18:05:13.036Z,69.59
2023-01-04T18:07:41.485Z,68.61
2023-01-04T18:10:20.579Z,69.46
2023-01-04T18:12:55.156Z,68.63
2023-01-04T18:15:23.453Z,69.19
2023-01-04T18:17:51.742Z,69.72
2023-01-04T18:20:24.934Z,70.02
2023-01-04T18:22:54.268Z,71.12
2023-01-04T18:25:22.587Z,69.23
2023-01-04T18:27:50.875Z,70.27
2023-01-04T18:30:19.475Z,69.04
2023-01-04T18:32:47.807Z,71.50
2023-01-04T18:35:16.158Z,71.71
2023-01-04T18:37:46.705Z,72.53
2023-01-04T18:40:15.111Z,72.99
2023-01-04T18:42:50.199Z,73.44
2023-01-04T18:45:19.709Z,72.75
2023-01-04T18:47:50.875Z,73.13
2023-01-04T18:50:19.630Z,73.30
2023-01-04T18:52:47.897Z,73.74
2023-01-04T18:55:16.397Z,74.62
2023-01-04T18:57:44.713Z,74.55
2023-01-04T19:00:13.713Z,74.13
2023-01-04T19:02:42.342Z,75.63
2023-01-04T19:05:12.180Z,75.23
2023-01-04T19:07:41.163Z,75.30
2023-01-04T19:10:10.154Z,76.36
2023-01-04T19:12:39.730Z,76.65
2023-01-04T19:15:09.054Z,76.29
2023-01-04T19:17:37.733Z,76.28
2023-01-04T19:20:06.926Z,76.40
2023-01-04T19:22:35.756Z,77.12
2023-01-04T19:25:04.143Z,76.18
2023-01-04T19:27:32.591Z,77.12
2023-01-04T19:30:00.976Z,76.78
2023-01-04T19:32:33.478Z,76.86
2023-01-04T19:35:02.391Z,77.51
2023-01-04T19:37:31.252Z,76.89
2023-01-04T19:39:59.553Z,78.39
2023-01-04T19:42:27.849Z,78.18
2023-01-04T19:44:56.163Z,78.27
2023-01-04T19:47:24.901Z,79.35
2023-01-04T19:49:53.221Z,79.54
2023-01-04T19:52:21.533Z,79.05
2023-01-04T19:54:49.834Z,78.64
2023-01-04T19:57:18.233Z,79.39
2023-01-04T19:59:46.531Z,79.47
2023-01-04T20:02:15.020Z,79.17
2023-01-04T20:04:43.741Z,79.21
2023-01-04T20:07:12.063Z,79.38
2023-01-04T20:09:40.372Z,78.94
2023-01-04T20:12:08.900Z,80.71
2023-01-04T20:14:37.179Z,80.32
2023-01-04T20:17:05.568Z,80.40
2023-01-04T20:19:33.927Z,78.51
2023-01-04T20:22:02.317Z,80.44
2023-01-04T20:24:30.702Z,81.30
2023-01-04T20:26:59.133Z,80.24
2023-01-04T20:29:27.481Z,80.44
2023-01-04T20:31:56.834Z,81.70
2023-01-04T20:34:25.087Z,81.54
2023-01-04T20:39:38.290Z,81.42
2023-01-04T20:42:24.822Z,81.66
2023-01-04T20:44:53.156Z,80.54
2023-01-04T20:47:21.636Z,80.83
2023-01-04T20:49:50.000Z,81.60
2023-01-04T20:52:18.308Z,82.42
2023-01-04T20:54:50.626Z,82.65
2023-01-04T20:57:18.918Z,83.18
2023-01-04T20:59:47.509Z,82.44
2023-01-04T21:02:16.072Z,82.51
2023-01-04T21:04:47.048Z,82.88
2023-01-04T21:07:15.395Z,82.21
2023-01-04T21:09:43.714Z,82.41
2023-01-04T21:12:11.988Z,83.18
2023-01-04T21:14:41.027Z,82.46
2023-01-04T21:17:09.364Z,82.30
2023-01-04T21:19:37.699Z,82.93
2023-01-04T21:22:06.002Z,81.83
2023-01-04T21:24:35.232Z,83.67
2023-01-04T21:27:03.624Z,82.19
2023-01-04T21:29:31.974Z,82.47
2023-01-04T21:32:00.330Z,83.13
2023-01-04T21:34:29.024Z,83.36
2023-01-04T21:36:57.437Z,83.36
2023-01-04T21:39:25.731Z,82.95
2023-01-04T21:41:57.040Z,82.65
2023-01-04T21:44:25.397Z,81.99
2023-01-04T21:46:53.823Z,83.31
2023-01-04T21:49:22.165Z,81.73
2023-01-04T21:51:50.492Z,82.61
2023-01-04T21:54:18.760Z,83.50
2023-01-04T21:56:47.381Z,83.36
2023-01-04T21:59:15.733Z,82.97
2023-01-04T22:01:44.264Z,83.35
2023-01-04T22:04:12.723Z,83.11
2023-01-04T22:06:42.460Z,83.03
2023-01-04T22:09:10.888Z,82.73
2023-01-04T22:11:41.549Z,83.15
2023-01-04T22:14:09.923Z,83.44
2023-01-04T22:16:38.524Z,83.50
2023-01-04T22:19:06.854Z,84.05
2023-01-04T22:21:35.127Z,84.20
2023-01-04T22:24:03.488Z,83.99
2023-01-04T22:26:31.810Z,83.53
2023-01-04T22:29:00.143Z,83.88
2023-01-04T22:31:28.482Z,83.54
2023-01-04T22:33:57.129Z,83.07
2023-01-04T22:36:26.010Z,83.92
2023-01-04T22:38:56.060Z,84.07
2023-01-04T22:41:29.281Z,84.55
2023-01-04T22:44:02.392Z,84.24
2023-01-04T22:46:32.256Z,84.59
2023-01-04T22:49:01.958Z,85.02
2023-01-04T22:51:31.458Z,84.71
2023-01-04T22:54:02.388Z,85.19
2023-01-04T22:56:30.897Z,84.75
2023-01-04T22:59:00.158Z,85.19
2023-01-04T23:01:31.458Z,84.98
2023-01-04T23:04:01.874Z,84.74
2023-01-04T23:06:31.938Z,84.73
2023-01-04T23:09:02.964Z,84.35
2023-01-04T23:11:33.253Z,85.11
2023-01-04T23:14:04.429Z,85.67
2023-01-04T23:16:33.644Z,85.15
2023-01-04T23:19:03.450Z,85.45
2023-01-04T23:21:32.783Z,85.82
2023-01-04T23:24:01.949Z,85.54
2023-01-04T23:26:32.435Z,86.19
2023-01-04T23:29:02.130Z,85.92
2023-01-04T23:31:32.792Z,85.41
2023-01-04T23:34:03.637Z,86.12
2023-01-04T23:36:35.074Z,84.64
2023-01-04T23:39:06.941Z,84.83
2023-01-04T23:41:48.199Z,85.31
2023-01-04T23:44:25.084Z,84.65
2023-01-04T23:46:56.472Z,85.01
2023-01-04T23:49:26.789Z,85.10
2023-01-04T23:51:55.434Z,84.69
2023-01-04T23:54:24.698Z,84.34
2023-01-04T23:56:53.283Z,83.50
2023-01-04T23:59:22.776Z,83.80
